Time;durP1;ratioP1;P1;durP2;ratioP2;P2;SDS_P1;SDS_P2;PMS_P1;PMS_P2;Temp;Humidity;BMP_temperature;BMP_pressure;BME280_temperature;BME280_humidity;BME280_pressure;Samples;Min_cycle;Max_cycle;Signal;HPM_P1;HPM_P2
2023/08/26 00:01:33;;;;;;;11.50;6.40;;;17.50;99.90;;;;;;5024856;28;20041;-88
2023/08/26 00:03:59;;;;;;;13.00;6.65;;;17.40;99.90;;;;;;5031181;28;20083;-88
2023/08/26 00:06:25;;;;;;;12.68;7.22;;;17.40;99.90;;;;;;5014852;28;20060;-88
2023/08/26 00:08:52;;;;;;;13.38;7.40;;;17.40;99.90;;;;;;5049994;28;20036;-88
2023/08/26 00:11:18;;;;;;;13.38;7.13;;;17.40;99.90;;;;;;5031398;28;20081;-88
2023/08/26 00:13:44;;;;;;;13.00;6.90;;;17.30;99.90;;;;;;5033357;28;20437;-88
2023/08/26 00:16:11;;;;;;;13.23;6.88;;;17.30;99.90;;;;;;5051310;28;20063;-88
2023/08/26 00:18:37;;;;;;;12.93;7.20;;;17.30;99.90;;;;;;5051082;28;20049;-87
2023/08/26 00:21:03;;;;;;;14.07;7.53;;;17.30;99.90;;;;;;5031294;28;20125;-88
2023/08/26 00:23:31;;;;;;;13.50;7.72;;;17.30;99.90;;;;;;5047664;28;20058;-88
2023/08/26 00:25:57;;;;;;;11.13;6.40;;;17.30;99.90;;;;;;5034384;28;20086;-88
2023/08/26 00:28:23;;;;;;;11.88;6.63;;;17.20;99.90;;;;;;5050404;28;20116;-87
2023/08/26 00:30:59;;;;;;;11.48;6.38;;;17.20;99.90;;;;;;5013069;28;20485;-87
2023/08/26 00:33:26;;;;;;;11.75;6.30;;;17.10;99.90;;;;;;5015530;28;20385;-88
2023/08/26 00:35:52;;;;;;;11.38;6.47;;;17.10;99.90;;;;;;5021392;28;20067;-88
2023/08/26 00:38:17;;;;;;;12.13;6.55;;;17.00;99.90;;;;;;5027738;28;20450;-87
2023/08/26 00:40:43;;;;;;;13.05;6.05;;;16.90;99.90;;;;;;5029003;28;20116;-88
2023/08/26 00:43:09;;;;;;;11.35;6.22;;;17.00;99.90;;;;;;5013330;28;20040;-87
2023/08/26 00:45:43;;;;;;;11.65;6.00;;;17.00;99.90;;;;;;5026706;28;20075;-87
2023/08/26 00:48:11;;;;;;;10.32;5.88;;;17.00;99.90;;;;;;5037301;28;20051;-87
2023/08/26 00:50:42;;;;;;;11.68;5.72;;;16.90;99.90;;;;;;5026613;28;20038;-88
2023/08/26 00:53:11;;;;;;;11.48;5.40;;;16.80;99.90;;;;;;5033600;28;20225;-87
2023/08/26 00:55:37;;;;;;;11.38;5.22;;;16.90;99.90;;;;;;5042692;28;20095;-88
2023/08/26 00:58:05;;;;;;;11.18;5.05;;;16.80;99.90;;;;;;5016102;28;20038;-88
2023/08/26 01:00:32;;;;;;;11.43;5.05;;;16.80;99.90;;;;;;5026330;28;20084;-88
2023/08/26 01:02:58;;;;;;;10.07;5.05;;;16.20;99.90;;;;;;5032188;28;20045;-88
2023/08/26 01:05:24;;;;;;;12.07;5.25;;;16.70;99.90;;;;;;5014968;28;20069;-88
2023/08/26 01:07:50;;;;;;;9.73;5.53;;;16.70;99.90;;;;;;5011914;28;20072;-88
2023/08/26 01:10:16;;;;;;;12.13;5.88;;;16.60;99.90;;;;;;5031019;28;20116;-87
2023/08/26 01:13:00;;;;;;;11.30;5.97;;;16.60;99.90;;;;;;5007869;28;20037;-87
2023/08/26 01:15:28;;;;;;;11.70;5.78;;;16.60;99.90;;;;;;5014492;28;20088;-88
2023/08/26 01:17:55;;;;;;;11.00;6.13;;;16.60;99.90;;;;;;5027941;28;20432;-88
2023/08/26 01:20:23;;;;;;;11.88;6.03;;;16.60;99.90;;;;;;5022594;28;20460;-87
2023/08/26 01:22:51;;;;;;;13.65;6.22;;;16.50;99.90;;;;;;5019225;28;20494;-87
2023/08/26 01:25:17;;;;;;;11.57;6.13;;;16.50;99.90;;;;;;5019890;28;20195;-87
2023/08/26 01:27:43;;;;;;;12.00;6.30;;;16.50;99.90;;;;;;5031097;28;20042;-87
2023/08/26 01:30:12;;;;;;;11.75;6.18;;;16.50;99.90;;;;;;5043595;28;20537;-87
2023/08/26 01:32:52;;;;;;;12.93;6.13;;;16.40;99.90;;;;;;5035571;28;20045;-87
2023/08/26 01:35:26;;;;;;;12.02;6.10;;;16.40;99.90;;;;;;5025161;28;20041;-87
2023/08/26 01:37:54;;;;;;;11.23;6.00;;;16.30;99.90;;;;;;5016723;28;20047;-88
2023/08/26 01:40:21;;;;;;;12.80;6.20;;;16.30;99.90;;;;;;5024474;28;20160;-88
2023/08/26 01:42:48;;;;;;;14.13;6.20;;;16.30;99.90;;;;;;5016506;28;20038;-87
2023/08/26 01:45:14;;;;;;;13.73;6.15;;;16.30;99.90;;;;;;5025176;28;20045;-88
2023/08/26 01:47:39;;;;;;;13.32;6.38;;;16.30;99.90;;;;;;5027498;28;20601;-87
2023/08/26 01:50:05;;;;;;;11.68;5.70;;;16.30;99.90;;;;;;5033749;28;20089;-88
2023/08/26 01:52:31;;;;;;;10.88;6.10;;;16.30;99.90;;;;;;5030177;28;20042;-87
2023/08/26 01:54:57;;;;;;;13.15;6.15;;;16.30;99.90;;;;;;5024345;28;20497;-88
2023/08/26 01:57:23;;;;;;;10.93;5.63;;;16.30;99.90;;;;;;5023370;28;20076;-87
2023/08/26 01:59:48;;;;;;;10.57;5.47;;;16.30;99.90;;;;;;5014211;28;20153;-87
2023/08/26 02:02:14;;;;;;;12.07;5.57;;;16.30;99.90;;;;;;5025810;28;20048;-87
2023/08/26 02:04:40;;;;;;;11.70;5.78;;;16.20;99.90;;;;;;5015807;28;20051;-87
2023/08/26 02:07:05;;;;;;;11.60;6.07;;;16.20;99.90;;;;;;5000352;28;20040;-87
2023/08/26 02:09:31;;;;;;;11.70;5.90;;;16.20;99.90;;;;;;5014982;28;20045;-88
2023/08/26 02:11:57;;;;;;;12.25;6.88;;;16.10;99.90;;;;;;5023966;28;20116;-86
2023/08/26 02:14:22;;;;;;;12.27;5.93;;;16.10;99.90;;;;;;5014002;28;20040;-88
2023/08/26 02:16:48;;;;;;;10.73;5.55;;;16.10;99.90;;;;;;5006923;28;20045;-88
2023/08/26 02:19:14;;;;;;;12.07;5.95;;;16.10;99.90;;;;;;5013133;28;20072;-88
2023/08/26 02:21:39;;;;;;;10.77;5.35;;;16.00;99.90;;;;;;5021907;28;20037;-87
2023/08/26 02:24:05;;;;;;;9.93;4.68;;;16.00;99.90;;;;;;5011888;28;20110;-87
2023/08/26 02:26:31;;;;;;;12.15;5.18;;;15.90;99.90;;;;;;5020682;28;20048;-87
2023/08/26 02:28:57;;;;;;;10.57;5.07;;;15.90;99.90;;;;;;5017173;28;20045;-88
2023/08/26 02:31:23;;;;;;;11.63;5.07;;;15.90;99.90;;;;;;5016311;28;20110;-87
2023/08/26 02:33:49;;;;;;;9.88;4.93;;;15.80;99.90;;;;;;5026974;28;20033;-87
2023/08/26 02:36:14;;;;;;;9.73;5.05;;;15.80;99.90;;;;;;5003148;28;20395;-87
2023/08/26 02:38:40;;;;;;;11.13;4.70;;;15.70;99.90;;;;;;5032742;28;20043;-87
2023/08/26 02:41:07;;;;;;;11.23;5.15;;;15.70;99.90;;;;;;4999011;28;20094;-87
2023/08/26 02:43:33;;;;;;;9.80;5.15;;;15.70;99.90;;;;;;5000339;28;20508;-87
2023/08/26 02:45:58;;;;;;;11.35;5.32;;;15.60;99.90;;;;;;5014099;28;20045;-87
2023/08/26 02:48:25;;;;;;;9.43;4.57;;;15.60;99.90;;;;;;5007377;28;20057;-87
2023/08/26 02:51:02;;;;;;;8.88;4.75;;;15.60;99.90;;;;;;5013785;28;20048;-87
2023/08/26 02:53:29;;;;;;;9.48;4.82;;;15.50;99.90;;;;;;5016172;28;20099;-87
2023/08/26 02:55:55;;;;;;;10.48;4.80;;;15.50;99.90;;;;;;5034005;28;20097;-87
2023/08/26 02:58:22;;;;;;;10.07;5.07;;;15.50;99.90;;;;;;5041063;28;20446;-87
2023/08/26 03:00:48;;;;;;;10.05;5.47;;;15.40;99.90;;;;;;5015982;28;20350;-87
2023/08/26 03:03:14;;;;;;;11.55;5.53;;;15.40;99.90;;;;;;5022053;28;20037;-87
2023/08/26 03:05:41;;;;;;;9.55;4.90;;;15.30;99.90;;;;;;5016361;28;20112;-87
2023/08/26 03:08:07;;;;;;;9.85;4.93;;;15.30;99.90;;;;;;5005863;28;20044;-87
2023/08/26 03:10:33;;;;;;;8.90;4.22;;;15.30;99.90;;;;;;5012539;28;20533;-88
2023/08/26 03:12:59;;;;;;;9.38;4.35;;;15.30;99.90;;;;;;5015660;28;20040;-88
2023/08/26 03:15:31;;;;;;;11.68;4.40;;;15.20;99.90;;;;;;5015054;28;20036;-87
2023/08/26 03:17:57;;;;;;;9.98;4.35;;;15.20;99.90;;;;;;5009948;28;20049;-87
2023/08/26 03:20:23;;;;;;;9.25;4.00;;;15.20;99.90;;;;;;5001437;28;20413;-87
2023/08/26 03:22:49;;;;;;;10.00;4.10;;;15.20;99.90;;;;;;5010723;28;20041;-87
2023/08/26 03:25:15;;;;;;;9.60;3.85;;;15.10;99.90;;;;;;5015727;28;20043;-87
2023/08/26 03:27:41;;;;;;;9.60;4.18;;;15.20;99.90;;;;;;5019836;28;20040;-87
2023/08/26 03:30:07;;;;;;;10.95;3.67;;;15.10;99.90;;;;;;5009912;28;20037;-87
2023/08/26 03:32:32;;;;;;;8.70;3.65;;;15.10;99.90;;;;;;5022741;28;20109;-87
2023/08/26 03:34:58;;;;;;;7.60;3.40;;;15.10;99.90;;;;;;5022090;28;20444;-87
2023/08/26 03:37:24;;;;;;;8.75;3.75;;;15.10;99.90;;;;;;5015464;28;20120;-87
2023/08/26 03:39:50;;;;;;;8.75;3.50;;;15.00;99.90;;;;;;5025150;28;20051;-87
2023/08/26 03:42:16;;;;;;;7.97;3.65;;;15.00;99.90;;;;;;5014328;28;20362;-87
2023/08/26 03:44:42;;;;;;;8.25;3.30;;;15.00;99.90;;;;;;5015151;28;20096;-88
2023/08/26 03:47:07;;;;;;;8.02;3.47;;;15.00;99.90;;;;;;5019813;28;20044;-87
2023/08/26 03:49:33;;;;;;;8.73;3.72;;;14.90;99.90;;;;;;5007353;28;20502;-87
2023/08/26 03:51:59;;;;;;;9.07;3.65;;;15.00;99.90;;;;;;5028911;28;20087;-87
2023/08/26 03:54:25;;;;;;;9.98;3.65;;;14.90;99.90;;;;;;5025192;28;20413;-87
2023/08/26 03:56:50;;;;;;;8.70;3.50;;;14.90;99.90;;;;;;5002114;28;20045;-87
2023/08/26 03:59:16;;;;;;;10.05;4.40;;;14.90;99.90;;;;;;5004636;28;20437;-87
2023/08/26 04:01:42;;;;;;;9.23;3.90;;;14.80;99.90;;;;;;5010172;28;20053;-87
2023/08/26 04:04:07;;;;;;;10.80;3.90;;;14.90;99.90;;;;;;5019768;28;20036;-87
2023/08/26 04:06:33;;;;;;;9.20;3.55;;;14.90;99.90;;;;;;5025737;28;20095;-87
2023/08/26 04:09:02;;;;;;;8.13;3.85;;;14.90;99.90;;;;;;5018905;28;20039;-88
2023/08/26 04:11:28;;;;;;;9.77;3.65;;;14.90;99.90;;;;;;5009070;28;20072;-87
2023/08/26 04:13:54;;;;;;;8.95;3.50;;;14.90;99.90;;;;;;5015444;28;20075;-87
2023/08/26 04:16:21;;;;;;;9.02;3.67;;;14.90;99.90;;;;;;5028951;28;20040;-88
2023/08/26 04:18:51;;;;;;;9.90;4.20;;;14.90;99.90;;;;;;5035848;28;20060;-88
2023/08/26 04:21:18;;;;;;;8.73;3.80;;;14.90;99.90;;;;;;5031992;28;20101;-88
2023/08/26 04:23:43;;;;;;;9.95;3.75;;;14.90;99.90;;;;;;5002797;28;20048;-88
2023/08/26 04:26:09;;;;;;;10.10;3.42;;;14.90;99.90;;;;;;5015050;28;20041;-88
2023/08/26 04:28:35;;;;;;;8.73;3.15;;;14.30;99.90;;;;;;5019745;28;20482;-87
2023/08/26 04:31:00;;;;;;;8.93;3.75;;;14.80;99.90;;;;;;5010573;28;20151;-88
2023/08/26 04:33:26;;;;;;;9.10;3.75;;;14.90;99.90;;;;;;5033056;28;20040;-87
2023/08/26 04:35:52;;;;;;;9.88;4.00;;;14.80;99.90;;;;;;5013102;28;20481;-87
2023/08/26 04:38:18;;;;;;;8.82;3.97;;;14.90;99.90;;;;;;5021162;28;20094;-88
2023/08/26 04:40:44;;;;;;;9.20;3.60;;;14.80;99.90;;;;;;5019016;28;20468;-87
2023/08/26 04:43:10;;;;;;;7.68;3.55;;;14.90;99.90;;;;;;5021238;28;20448;-87
2023/08/26 04:45:40;;;;;;;8.30;3.90;;;14.80;99.90;;;;;;5029223;28;20040;-87
2023/08/26 04:48:07;;;;;;;9.95;3.90;;;14.90;99.90;;;;;;5031027;28;20049;-88
2023/08/26 04:50:33;;;;;;;10.25;3.80;;;14.80;99.90;;;;;;5024148;28;20061;-87
2023/08/26 04:53:00;;;;;;;9.40;3.85;;;14.80;99.90;;;;;;5036714;28;20076;-87
2023/08/26 04:55:26;;;;;;;7.38;3.30;;;14.80;99.90;;;;;;5029479;28;20041;-87
2023/08/26 04:57:52;;;;;;;9.63;3.50;;;14.80;99.90;;;;;;5031515;28;20119;-87
2023/08/26 05:00:17;;;;;;;9.50;4.03;;;14.80;99.90;;;;;;5007138;28;20037;-87
2023/08/26 05:02:43;;;;;;;8.15;3.83;;;14.80;99.90;;;;;;5029228;28;20441;-87
2023/08/26 05:05:09;;;;;;;9.63;3.63;;;14.80;99.90;;;;;;5005752;28;20048;-87
2023/08/26 05:07:35;;;;;;;10.38;3.83;;;14.80;99.90;;;;;;5027926;28;20060;-87
2023/08/26 05:10:05;;;;;;;9.35;3.97;;;14.90;99.90;;;;;;5031860;28;20076;-87
2023/08/26 05:12:31;;;;;;;8.20;3.80;;;14.90;99.90;;;;;;5017566;28;20043;-87
2023/08/26 05:14:57;;;;;;;9.48;4.20;;;15.00;99.90;;;;;;5034522;28;20041;-88
2023/08/26 05:17:23;;;;;;;9.48;4.20;;;15.00;99.90;;;;;;5010364;28;20041;-87
2023/08/26 05:19:48;;;;;;;9.32;4.20;;;15.00;99.90;;;;;;5020028;28;20086;-87
2023/08/26 05:22:14;;;;;;;10.32;4.85;;;15.00;99.90;;;;;;5026146;28;20095;-87
2023/08/26 05:24:40;;;;;;;9.50;4.93;;;15.00;99.90;;;;;;5034376;28;20040;-87
2023/08/26 05:27:06;;;;;;;10.02;4.50;;;15.00;99.90;;;;;;5032410;28;20353;-87
2023/08/26 05:29:31;;;;;;;9.60;4.70;;;15.10;99.90;;;;;;5034301;28;20044;-87
2023/08/26 05:31:57;;;;;;;9.20;4.05;;;15.10;99.90;;;;;;5017604;28;20037;-87
2023/08/26 05:34:23;;;;;;;9.13;4.18;;;15.20;99.90;;;;;;4997515;28;20079;-87
2023/08/26 05:36:49;;;;;;;10.60;4.03;;;15.20;99.90;;;;;;5022586;28;20123;-87
2023/08/26 05:39:14;;;;;;;10.10;4.43;;;15.30;99.90;;;;;;5028915;28;20285;-87
2023/08/26 05:41:40;;;;;;;10.15;4.05;;;15.30;99.90;;;;;;5005574;28;20047;-87
2023/08/26 05:44:06;;;;;;;7.85;3.80;;;15.40;99.90;;;;;;5015423;28;20052;-87
2023/08/26 05:46:32;;;;;;;8.15;3.95;;;15.40;99.90;;;;;;5029656;28;20497;-87
2023/08/26 05:48:57;;;;;;;9.02;4.40;;;15.30;99.90;;;;;;5011335;28;20107;-87
2023/08/26 05:51:23;;;;;;;8.30;3.80;;;15.40;99.90;;;;;;5003912;28;20041;-87
2023/08/26 05:53:49;;;;;;;9.23;3.85;;;15.40;99.90;;;;;;5010446;28;20065;-87
2023/08/26 05:56:15;;;;;;;8.77;4.20;;;15.40;99.90;;;;;;5000916;28;20456;-87
2023/08/26 05:58:40;;;;;;;8.60;4.00;;;15.40;99.90;;;;;;5042407;28;20045;-87
2023/08/26 06:01:06;;;;;;;8.82;4.05;;;15.40;99.90;;;;;;5017086;28;20040;-87
2023/08/26 06:03:32;;;;;;;8.35;3.67;;;15.40;99.90;;;;;;5008561;28;20152;-86
2023/08/26 06:05:58;;;;;;;9.13;3.92;;;15.40;99.90;;;;;;5034683;28;20045;-87
2023/08/26 06:08:23;;;;;;;10.10;3.90;;;15.50;99.90;;;;;;5010014;28;20045;-87
2023/08/26 06:10:56;;;;;;;9.23;3.90;;;15.50;99.90;;;;;;5013590;28;20045;-87
2023/08/26 06:13:21;;;;;;;8.45;3.70;;;15.60;99.90;;;;;;5043623;28;20028;-87
2023/08/26 06:15:56;;;;;;;8.30;3.83;;;15.60;99.90;;;;;;5000636;28;20094;-87
2023/08/26 06:18:23;;;;;;;8.60;3.45;;;15.60;99.90;;;;;;5016760;28;20124;-87
2023/08/26 06:20:52;;;;;;;8.43;3.35;;;15.60;99.90;;;;;;5033791;28;20583;-87
2023/08/26 06:23:19;;;;;;;7.88;3.22;;;15.60;99.90;;;;;;5053110;28;20037;-87
2023/08/26 06:25:52;;;;;;;9.52;3.60;;;15.60;99.90;;;;;;5025154;28;20094;-87
2023/08/26 06:28:18;;;;;;;7.78;3.38;;;15.70;99.90;;;;;;5025746;28;20036;-87
2023/08/26 06:30:44;;;;;;;9.00;3.00;;;15.70;99.90;;;;;;5029925;28;20094;-87
2023/08/26 06:33:10;;;;;;;8.82;3.22;;;15.60;99.90;;;;;;5016459;28;20359;-87
2023/08/26 06:35:35;;;;;;;7.10;2.90;;;15.60;99.90;;;;;;5030039;28;20562;-87
2023/08/26 06:38:01;;;;;;;6.63;2.75;;;15.60;99.90;;;;;;5004898;28;20067;-87
2023/08/26 06:40:30;;;;;;;9.73;2.80;;;15.60;99.90;;;;;;5012024;28;20106;-88
2023/08/26 06:42:57;;;;;;;7.30;3.00;;;15.60;99.90;;;;;;5005807;28;20068;-87
2023/08/26 06:45:23;;;;;;;6.80;2.50;;;15.60;99.90;;;;;;5030050;28;20082;-87
2023/08/26 06:47:48;;;;;;;7.88;2.58;;;15.60;99.90;;;;;;5023393;28;20510;-87
2023/08/26 06:50:14;;;;;;;6.18;2.40;;;15.60;99.90;;;;;;4999900;28;20184;-87
2023/08/26 06:52:40;;;;;;;6.80;2.50;;;15.60;99.90;;;;;;5016058;28;20098;-87
2023/08/26 06:55:08;;;;;;;7.38;2.55;;;15.70;99.90;;;;;;5010028;28;20041;-87
2023/08/26 06:57:35;;;;;;;7.32;2.50;;;15.70;99.90;;;;;;5016132;28;20494;-87
2023/08/26 07:00:03;;;;;;;7.55;2.60;;;15.70;99.90;;;;;;5028999;28;20076;-87
2023/08/26 07:02:29;;;;;;;8.60;2.83;;;15.70;99.90;;;;;;5032745;28;20044;-87
2023/08/26 07:04:54;;;;;;;8.00;3.03;;;15.70;99.90;;;;;;5008620;28;20040;-88
2023/08/26 07:07:20;;;;;;;8.27;2.90;;;15.70;99.90;;;;;;5017308;28;20102;-88
2023/08/26 07:09:46;;;;;;;7.80;2.90;;;15.70;99.90;;;;;;5008656;28;20469;-87
2023/08/26 07:12:12;;;;;;;8.05;2.53;;;15.70;99.90;;;;;;4999224;28;20072;-87
2023/08/26 07:14:38;;;;;;;7.32;2.75;;;15.70;99.90;;;;;;5006539;28;20048;-87
2023/08/26 07:17:04;;;;;;;7.90;3.00;;;15.80;99.90;;;;;;5029219;28;20045;-86
2023/08/26 07:19:29;;;;;;;7.57;2.80;;;15.80;99.90;;;;;;5021857;28;20477;-87
2023/08/26 07:21:55;;;;;;;7.35;2.75;;;15.80;99.90;;;;;;5028185;28;20068;-87
2023/08/26 07:24:21;;;;;;;7.95;3.20;;;15.90;99.90;;;;;;5020732;28;20041;-86
2023/08/26 07:26:47;;;;;;;7.88;3.03;;;15.90;99.90;;;;;;5030162;28;20032;-87
2023/08/26 07:29:12;;;;;;;7.70;3.30;;;15.90;99.90;;;;;;5028004;28;20498;-87
2023/08/26 07:31:38;;;;;;;8.35;3.00;;;16.00;99.90;;;;;;5008508;28;20040;-87
2023/08/26 07:34:04;;;;;;;9.00;3.38;;;16.10;99.90;;;;;;5014817;28;20041;-87
2023/08/26 07:36:29;;;;;;;8.43;3.35;;;16.10;99.90;;;;;;5031917;28;20072;-87
2023/08/26 07:38:55;;;;;;;8.15;3.28;;;16.20;99.90;;;;;;4997924;28;20067;-88
2023/08/26 07:41:21;;;;;;;9.27;3.67;;;16.20;99.90;;;;;;4998964;28;20084;-87
2023/08/26 07:43:46;;;;;;;9.85;4.43;;;16.20;99.90;;;;;;5013224;28;20387;-87
2023/08/26 07:46:12;;;;;;;9.10;4.68;;;16.30;99.90;;;;;;5009524;28;20044;-88
2023/08/26 07:48:38;;;;;;;10.27;4.97;;;16.30;99.90;;;;;;5017828;28;20037;-87
2023/08/26 07:51:04;;;;;;;11.15;5.72;;;16.30;99.90;;;;;;4999008;28;20041;-87
2023/08/26 07:53:30;;;;;;;10.95;5.85;;;16.40;99.90;;;;;;5011524;28;20111;-87
2023/08/26 07:55:55;;;;;;;12.52;6.65;;;16.50;99.90;;;;;;5004621;28;20086;-87
2023/08/26 07:58:21;;;;;;;11.07;6.72;;;16.80;99.90;;;;;;5049697;28;20537;-87
2023/08/26 08:00:47;;;;;;;14.95;7.30;;;16.90;99.90;;;;;;5003553;28;20041;-87
2023/08/26 08:03:13;;;;;;;13.60;7.90;;;17.10;99.90;;;;;;5028576;28;20050;-88
2023/08/26 08:05:38;;;;;;;13.27;8.68;;;17.30;99.90;;;;;;5002925;28;20494;-88
2023/08/26 08:08:04;;;;;;;16.00;9.60;;;17.40;99.90;;;;;;5008410;28;20118;-86
2023/08/26 08:10:30;;;;;;;15.52;9.13;;;17.50;99.90;;;;;;5001701;28;20041;-87
2023/08/26 08:12:55;;;;;;;16.65;10.70;;;17.60;99.90;;;;;;5011099;28;20040;-87
2023/08/26 08:15:21;;;;;;;16.20;10.32;;;17.60;99.90;;;;;;5051191;28;20209;-87
2023/08/26 08:17:47;;;;;;;16.75;11.73;;;17.70;99.90;;;;;;5006449;28;20041;-87
2023/08/26 08:20:12;;;;;;;18.77;12.05;;;17.80;99.90;;;;;;5013263;28;20059;-86
2023/08/26 08:22:43;;;;;;;19.50;12.70;;;17.90;99.90;;;;;;5026129;28;20097;-87
2023/08/26 08:25:09;;;;;;;17.13;12.02;;;18.00;99.90;;;;;;5030213;28;20106;-87
2023/08/26 08:27:37;;;;;;;18.48;12.18;;;18.10;99.90;;;;;;5014459;28;20448;-87
2023/08/26 08:30:04;;;;;;;18.67;13.13;;;18.20;99.90;;;;;;5032559;28;20033;-88
2023/08/26 08:32:30;;;;;;;17.92;12.48;;;18.30;99.90;;;;;;5014809;28;20033;-87
2023/08/26 08:34:56;;;;;;;15.93;10.95;;;18.30;99.90;;;;;;5028314;28;20381;-87
2023/08/26 08:37:22;;;;;;;17.35;11.63;;;18.30;99.90;;;;;;5004630;28;20040;-87
2023/08/26 08:39:47;;;;;;;16.88;11.20;;;18.30;99.90;;;;;;5011432;28;20037;-88
2023/08/26 08:42:15;;;;;;;15.93;11.27;;;18.30;99.90;;;;;;5039829;28;20563;-88
2023/08/26 08:44:43;;;;;;;17.25;10.90;;;18.40;99.90;;;;;;5032605;28;20041;-87
2023/08/26 08:47:10;;;;;;;16.13;10.70;;;18.60;99.90;;;;;;5019714;28;20472;-88
2023/08/26 08:49:37;;;;;;;16.27;10.50;;;18.60;99.90;;;;;;5028352;28;20048;-88
2023/08/26 08:52:06;;;;;;;17.38;11.02;;;18.60;99.90;;;;;;5003102;28;20068;-87
2023/08/26 08:54:33;;;;;;;15.75;10.60;;;18.60;99.90;;;;;;5010162;28;20272;-87
2023/08/26 08:56:59;;;;;;;14.80;10.15;;;18.80;99.90;;;;;;5002759;28;20036;-87
2023/08/26 08:59:29;;;;;;;15.82;9.57;;;19.00;99.90;;;;;;5008959;28;20040;-88
2023/08/26 09:01:55;;;;;;;13.98;9.07;;;19.00;99.90;;;;;;5026082;28;20058;-88
2023/08/26 09:04:28;;;;;;;13.55;9.05;;;18.90;99.90;;;;;;5024508;28;20111;-87
2023/08/26 09:06:54;;;;;;;14.02;9.15;;;18.90;99.90;;;;;;5014149;28;20089;-88
2023/08/26 09:09:21;;;;;;;14.93;8.60;;;18.80;99.90;;;;;;5018361;28;20449;-87
2023/08/26 09:11:48;;;;;;;13.23;7.80;;;18.70;99.90;;;;;;5034352;28;20033;-87
2023/08/26 09:14:14;;;;;;;13.18;8.40;;;18.60;99.90;;;;;;5028142;28;20051;-88
2023/08/26 09:16:41;;;;;;;11.50;7.40;;;18.60;99.90;;;;;;5034359;28;20037;-87
2023/08/26 09:19:12;;;;;;;15.25;7.47;;;18.60;99.90;;;;;;5034523;28;20045;-87
2023/08/26 09:21:44;;;;;;;12.85;6.57;;;18.60;99.90;;;;;;5037994;28;20041;-87
2023/08/26 09:24:14;;;;;;;11.48;6.28;;;18.80;99.90;;;;;;5023932;28;20045;-87
2023/08/26 09:26:58;;;;;;;9.48;5.45;;;18.90;99.90;;;;;;5030320;28;20048;-87
2023/08/26 09:29:25;;;;;;;12.10;5.70;;;19.20;99.90;;;;;;5020046;28;20398;-87
2023/08/26 09:31:52;;;;;;;10.13;5.72;;;19.20;99.90;;;;;;5006801;28;20370;-88
2023/08/26 09:34:29;;;;;;;11.45;6.45;;;19.20;99.90;;;;;;5017488;28;20147;-86
2023/08/26 09:36:55;;;;;;;11.32;5.60;;;19.20;99.90;;;;;;5027087;28;20051;-87
2023/08/26 09:39:21;;;;;;;10.07;5.90;;;19.20;99.90;;;;;;5023863;28;20045;-87
2023/08/26 09:41:47;;;;;;;12.35;5.70;;;19.20;99.90;;;;;;5033982;28;20102;-86
2023/08/26 09:44:15;;;;;;;10.25;6.22;;;19.30;99.90;;;;;;5012874;28;20041;-88
2023/08/26 09:46:42;;;;;;;10.43;5.82;;;19.60;99.90;;;;;;5042015;28;20045;-87
2023/08/26 09:49:14;;;;;;;12.43;5.90;;;19.60;99.90;;;;;;5007030;28;20055;-87
2023/08/26 09:51:51;;;;;;;;;;;19.70;99.90;;;;;;5029439;28;20083;-86
2023/08/26 09:54:18;;;;;;;11.82;6.20;;;19.90;99.90;;;;;;5053616;28;20297;-87
2023/08/26 09:56:45;;;;;;;10.15;5.47;;;20.10;99.90;;;;;;5027588;28;20222;-88
2023/08/26 09:59:11;;;;;;;11.50;5.75;;;20.30;99.90;;;;;;5032612;28;20154;-87
2023/08/26 10:01:39;;;;;;;10.75;5.43;;;20.20;99.90;;;;;;5028236;28;20049;-87
2023/08/26 10:04:09;;;;;;;10.77;5.03;;;19.90;99.90;;;;;;5002600;28;20072;-87
2023/08/26 10:06:38;;;;;;;11.07;5.30;;;19.70;99.90;;;;;;5011738;28;20393;-85
2023/08/26 10:09:37;;;;;;;11.60;5.32;;;19.70;99.90;;;;;;5019071;28;20120;-87
2023/08/26 10:12:05;;;;;;;9.93;5.28;;;19.60;99.90;;;;;;5015155;28;20413;-87
2023/08/26 10:14:34;;;;;;;12.07;5.28;;;19.50;99.90;;;;;;5033538;28;20033;-87
2023/08/26 10:17:02;;;;;;;10.88;5.10;;;19.50;99.90;;;;;;5016800;28;20037;-87
2023/08/26 10:19:29;;;;;;;9.23;4.53;;;19.50;99.90;;;;;;5036867;28;20063;-87
2023/08/26 10:21:56;;;;;;;10.73;4.28;;;19.60;99.90;;;;;;5023836;28;20064;-87
2023/08/26 10:24:22;;;;;;;11.13;4.40;;;19.60;99.90;;;;;;5030784;28;20189;-88
2023/08/26 10:26:48;;;;;;;10.63;4.93;;;19.40;99.90;;;;;;5000078;28;20041;-87
2023/08/26 10:29:14;;;;;;;9.07;4.93;;;19.30;99.90;;;;;;5016904;28;20041;-87
2023/08/26 10:31:43;;;;;;;10.35;4.82;;;19.20;99.90;;;;;;4992562;28;20457;-87
2023/08/26 10:34:09;;;;;;;10.63;4.68;;;19.10;99.90;;;;;;5033439;28;20052;-87
2023/08/26 10:36:39;;;;;;;10.32;4.57;;;19.00;99.90;;;;;;5032740;28;20072;-87
2023/08/26 10:39:15;;;;;;;8.85;2.80;;;19.00;99.90;;;;;;5034663;28;20464;-88
2023/08/26 10:42:00;;;;;;;7.32;1.77;;;18.90;99.90;;;;;;5040976;28;20049;-89
2023/08/26 10:44:30;;;;;;;8.80;2.08;;;18.40;99.90;;;;;;5019351;28;20107;-93
2023/08/26 10:46:56;;;;;;;6.75;2.00;;;17.60;99.90;;;;;;5029863;28;20037;-90
2023/08/26 10:49:27;;;;;;;6.45;1.80;;;17.00;99.90;;;;;;5021256;28;20057;-94
2023/08/26 10:52:17;;;;;;;5.18;1.60;;;16.60;99.90;;;;;;5032391;28;20073;-95
2023/08/26 10:54:46;;;;;;;6.22;1.52;;;16.30;99.90;;;;;;5025652;28;20037;-93
2023/08/26 10:57:12;;;;;;;5.85;1.80;;;16.10;99.90;;;;;;5033879;28;20452;-92
2023/08/26 10:59:40;;;;;;;6.65;1.92;;;16.00;99.90;;;;;;5014114;28;20049;-92
2023/08/26 11:02:13;;;;;;;7.35;1.63;;;16.10;99.90;;;;;;5013629;28;20045;-92
2023/08/26 11:04:43;;;;;;;4.15;1.40;;;16.10;99.90;;;;;;5026104;28;20036;-93
2023/08/26 11:07:17;;;;;;;5.47;1.60;;;16.30;99.90;;;;;;5032793;28;20047;-93
2023/08/26 11:09:43;;;;;;;5.20;1.50;;;16.50;99.90;;;;;;5004310;28;20049;-91
2023/08/26 11:12:28;;;;;;;5.15;1.70;;;16.70;99.90;;;;;;5012325;28;20037;-90
2023/08/26 11:15:03;;;;;;;4.50;1.80;;;17.10;99.90;;;;;;5012790;28;20584;-90
2023/08/26 11:17:29;;;;;;;5.22;1.50;;;17.40;99.90;;;;;;5024188;28;20408;-90
2023/08/26 11:19:55;;;;;;;3.55;1.42;;;17.50;99.90;;;;;;5004827;28;20037;-89
2023/08/26 11:22:29;;;;;;;5.13;1.80;;;17.70;99.90;;;;;;5016225;28;20057;-90
2023/08/26 11:24:55;;;;;;;5.43;1.70;;;17.80;99.90;;;;;;4996928;28;20437;-90
2023/08/26 11:27:20;;;;;;;4.57;1.70;;;18.00;99.90;;;;;;5011520;28;20130;-89
2023/08/26 11:29:46;;;;;;;4.75;1.60;;;18.10;99.90;;;;;;5028903;28;20076;-89
2023/08/26 11:32:12;;;;;;;5.53;1.70;;;18.10;99.90;;;;;;5008539;28;20454;-88
2023/08/26 11:34:38;;;;;;;5.78;1.85;;;18.20;99.90;;;;;;5005348;28;20037;-88
2023/08/26 11:37:05;;;;;;;4.88;1.90;;;18.30;99.90;;;;;;5017579;28;20037;-88
2023/08/26 11:39:33;;;;;;;7.88;2.58;;;18.40;99.90;;;;;;5032167;28;20041;-88
2023/08/26 11:41:59;;;;;;;6.10;2.25;;;18.50;99.90;;;;;;5012453;28;20045;-88
2023/08/26 11:44:25;;;;;;;5.10;2.10;;;18.40;99.90;;;;;;5003987;28;20044;-88
2023/08/26 11:46:53;;;;;;;6.65;2.22;;;18.30;99.90;;;;;;4995585;28;20529;-88
2023/08/26 11:49:19;;;;;;;6.93;2.40;;;18.20;99.90;;;;;;5003465;28;20057;-87
2023/08/26 11:51:45;;;;;;;7.50;2.55;;;18.40;99.90;;;;;;5012901;28;20041;-88
2023/08/26 11:54:24;;;;;;;7.30;3.15;;;18.60;99.90;;;;;;5011483;28;20060;-88
2023/08/26 11:56:51;;;;;;;10.38;3.20;;;18.90;99.90;;;;;;5011753;28;20033;-88
2023/08/26 11:59:21;;;;;;;7.63;2.90;;;19.10;99.90;;;;;;5019798;28;20046;-87
2023/08/26 12:01:47;;;;;;;8.98;3.05;;;19.20;99.90;;;;;;5011533;28;20046;-87
2023/08/26 12:04:16;;;;;;;8.05;3.33;;;19.20;99.90;;;;;;5003231;28;20120;-87
2023/08/26 12:06:43;;;;;;;8.05;3.13;;;19.10;99.90;;;;;;5011763;28;20159;-87
2023/08/26 12:09:12;;;;;;;10.10;3.17;;;19.10;99.90;;;;;;5003314;28;20562;-87
2023/08/26 12:11:42;;;;;;;8.93;3.55;;;19.00;99.90;;;;;;5011435;28;20044;-87
2023/08/26 12:14:18;;;;;;;8.50;3.78;;;19.00;99.90;;;;;;5011660;28;20041;-87
2023/08/26 12:16:44;;;;;;;8.75;3.47;;;19.20;99.90;;;;;;5027899;28;20045;-88
2023/08/26 12:19:17;;;;;;;9.43;3.63;;;19.30;99.90;;;;;;5019888;28;20045;-88
2023/08/26 12:21:47;;;;;;;8.10;3.53;;;19.40;99.90;;;;;;5047292;28;20179;-88
2023/08/26 12:24:13;;;;;;;8.95;3.63;;;19.40;99.90;;;;;;5003506;28;20494;-87
2023/08/26 12:26:39;;;;;;;8.48;3.80;;;19.40;99.90;;;;;;5008251;28;20099;-88
2023/08/26 12:29:05;;;;;;;9.50;4.00;;;19.40;99.90;;;;;;5003832;28;20103;-87
2023/08/26 12:31:34;;;;;;;10.88;4.05;;;19.30;99.90;;;;;;4995561;28;20049;-88
2023/08/26 12:34:02;;;;;;;13.43;4.53;;;19.20;99.90;;;;;;4995883;28;20041;-87
2023/08/26 12:36:28;;;;;;;9.88;4.18;;;19.10;99.90;;;;;;5014751;28;20068;-88
2023/08/26 12:38:55;;;;;;;9.73;4.18;;;19.10;99.90;;;;;;4999049;28;20049;-88
2023/08/26 12:41:20;;;;;;;8.45;4.20;;;19.00;99.90;;;;;;5032416;28;20041;-88